sensor_id;sensor_type;location;lat;lon;timestamp;P1;durP1;ratioP1;P2;durP2;ratioP2
5923;SDS011;2987;50.884;14.818;2023-01-26T00:00:54;42.83;;;20.67;;
5923;SDS011;2987;50.884;14.818;2023-01-26T00:03:21;40.30;;;18.57;;
5923;SDS011;2987;50.884;14.818;2023-01-26T00:05:47;41.30;;;18.00;;
5923;SDS011;2987;50.884;14.818;2023-01-26T00:08:13;41.50;;;18.33;;
5923;SDS011;2987;50.884;14.818;2023-01-26T00:10:40;37.57;;;18.97;;
5923;SDS011;2987;50.884;14.818;2023-01-26T00:13:15;42.93;;;18.70;;
5923;SDS011;2987;50.884;14.818;2023-01-26T00:15:44;49.77;;;20.43;;
5923;SDS011;2987;50.884;14.818;2023-01-26T00:18:10;38.70;;;19.60;;
5923;SDS011;2987;50.884;14.818;2023-01-26T00:20:37;43.50;;;20.17;;
5923;SDS011;2987;50.884;14.818;2023-01-26T00:23:03;41.60;;;20.37;;
5923;SDS011;2987;50.884;14.818;2023-01-26T00:25:29;38.50;;;19.23;;
5923;SDS011;2987;50.884;14.818;2023-01-26T00:27:56;33.07;;;17.50;;
5923;SDS011;2987;50.884;14.818;2023-01-26T00:30:22;32.37;;;17.63;;
5923;SDS011;2987;50.884;14.818;2023-01-26T00:32:49;38.70;;;20.07;;
5923;SDS011;2987;50.884;14.818;2023-01-26T00:35:15;40.43;;;20.00;;
5923;SDS011;2987;50.884;14.818;2023-01-26T00:37:41;39.37;;;18.10;;
5923;SDS011;2987;50.884;14.818;2023-01-26T00:40:08;36.43;;;18.97;;
5923;SDS011;2987;50.884;14.818;2023-01-26T00:42:34;40.63;;;18.80;;
5923;SDS011;2987;50.884;14.818;2023-01-26T00:45:01;38.10;;;19.77;;
5923;SDS011;2987;50.884;14.818;2023-01-26T00:47:28;39.67;;;19.87;;
5923;SDS011;2987;50.884;14.818;2023-01-26T00:49:55;43.67;;;22.60;;
5923;SDS011;2987;50.884;14.818;2023-01-26T00:52:21;40.90;;;22.77;;
5923;SDS011;2987;50.884;14.818;2023-01-26T00:54:49;35.50;;;18.73;;
5923;SDS011;2987;50.884;14.818;2023-01-26T00:57:15;32.07;;;17.20;;
5923;SDS011;2987;50.884;14.818;2023-01-26T00:59:41;32.87;;;17.10;;
5923;SDS011;2987;50.884;14.818;2023-01-26T01:02:07;32.10;;;18.17;;
5923;SDS011;2987;50.884;14.818;2023-01-26T01:04:36;34.07;;;18.00;;
5923;SDS011;2987;50.884;14.818;2023-01-26T01:07:02;34.27;;;18.27;;
5923;SDS011;2987;50.884;14.818;2023-01-26T01:09:30;33.57;;;18.07;;
5923;SDS011;2987;50.884;14.818;2023-01-26T01:11:56;35.83;;;18.40;;
5923;SDS011;2987;50.884;14.818;2023-01-26T01:14:22;41.53;;;21.73;;
5923;SDS011;2987;50.884;14.818;2023-01-26T01:16:48;44.90;;;22.53;;
5923;SDS011;2987;50.884;14.818;2023-01-26T01:19:15;51.93;;;23.93;;
5923;SDS011;2987;50.884;14.818;2023-01-26T01:21:43;59.77;;;26.43;;
5923;SDS011;2987;50.884;14.818;2023-01-26T01:24:10;62.67;;;27.57;;
5923;SDS011;2987;50.884;14.818;2023-01-26T01:26:37;49.83;;;24.87;;
5923;SDS011;2987;50.884;14.818;2023-01-26T01:29:04;48.53;;;24.13;;
5923;SDS011;2987;50.884;14.818;2023-01-26T01:31:31;46.03;;;22.53;;
5923;SDS011;2987;50.884;14.818;2023-01-26T01:33:58;44.67;;;22.50;;
5923;SDS011;2987;50.884;14.818;2023-01-26T01:36:27;47.73;;;23.70;;
5923;SDS011;2987;50.884;14.818;2023-01-26T01:38:55;53.13;;;25.17;;
5923;SDS011;2987;50.884;14.818;2023-01-26T01:41:23;51.07;;;25.27;;
5923;SDS011;2987;50.884;14.818;2023-01-26T01:43:51;47.83;;;23.40;;
5923;SDS011;2987;50.884;14.818;2023-01-26T01:46:36;54.53;;;25.17;;
5923;SDS011;2987;50.884;14.818;2023-01-26T01:49:05;44.77;;;20.13;;
5923;SDS011;2987;50.884;14.818;2023-01-26T01:51:46;42.70;;;18.80;;
5923;SDS011;2987;50.884;14.818;2023-01-26T01:54:20;44.10;;;18.87;;
5923;SDS011;2987;50.884;14.818;2023-01-26T01:56:51;37.97;;;17.43;;
5923;SDS011;2987;50.884;14.818;2023-01-26T01:59:22;39.20;;;17.33;;
5923;SDS011;2987;50.884;14.818;2023-01-26T02:01:50;38.80;;;17.40;;
5923;SDS011;2987;50.884;14.818;2023-01-26T02:04:18;33.37;;;16.80;;
5923;SDS011;2987;50.884;14.818;2023-01-26T02:06:55;32.97;;;16.73;;
5923;SDS011;2987;50.884;14.818;2023-01-26T02:09:25;33.93;;;15.57;;
5923;SDS011;2987;50.884;14.818;2023-01-26T02:12:17;37.63;;;18.23;;
5923;SDS011;2987;50.884;14.818;2023-01-26T02:14:46;38.53;;;16.93;;
5923;SDS011;2987;50.884;14.818;2023-01-26T02:17:14;35.67;;;16.53;;
5923;SDS011;2987;50.884;14.818;2023-01-26T02:22:52;35.30;;;17.73;;
5923;SDS011;2987;50.884;14.818;2023-01-26T02:25:56;37.73;;;16.67;;
5923;SDS011;2987;50.884;14.818;2023-01-26T02:28:26;33.07;;;16.80;;
5923;SDS011;2987;50.884;14.818;2023-01-26T02:33:23;35.20;;;18.10;;
5923;SDS011;2987;50.884;14.818;2023-01-26T02:35:53;35.87;;;18.00;;
5923;SDS011;2987;50.884;14.818;2023-01-26T02:40:54;44.53;;;18.87;;
5923;SDS011;2987;50.884;14.818;2023-01-26T02:43:27;41.40;;;18.87;;
5923;SDS011;2987;50.884;14.818;2023-01-26T02:45:56;43.57;;;19.60;;
5923;SDS011;2987;50.884;14.818;2023-01-26T02:51:34;41.67;;;20.00;;
5923;SDS011;2987;50.884;14.818;2023-01-26T02:54:00;40.47;;;19.77;;
5923;SDS011;2987;50.884;14.818;2023-01-26T02:56:26;40.50;;;20.67;;
5923;SDS011;2987;50.884;14.818;2023-01-26T02:58:53;48.40;;;21.13;;
5923;SDS011;2987;50.884;14.818;2023-01-26T03:01:19;42.20;;;20.50;;
5923;SDS011;2987;50.884;14.818;2023-01-26T03:03:46;40.80;;;19.03;;
5923;SDS011;2987;50.884;14.818;2023-01-26T03:06:13;39.77;;;19.77;;
5923;SDS011;2987;50.884;14.818;2023-01-26T03:08:40;36.97;;;20.60;;
5923;SDS011;2987;50.884;14.818;2023-01-26T03:11:06;43.83;;;20.57;;
5923;SDS011;2987;50.884;14.818;2023-01-26T03:13:33;40.23;;;19.30;;
5923;SDS011;2987;50.884;14.818;2023-01-26T03:15:59;36.30;;;18.73;;
5923;SDS011;2987;50.884;14.818;2023-01-26T03:18:32;35.83;;;19.43;;
5923;SDS011;2987;50.884;14.818;2023-01-26T03:21:21;40.40;;;20.77;;
5923;SDS011;2987;50.884;14.818;2023-01-26T03:24:08;35.60;;;18.47;;
5923;SDS011;2987;50.884;14.818;2023-01-26T03:26:56;45.13;;;19.50;;
5923;SDS011;2987;50.884;14.818;2023-01-26T03:29:41;35.37;;;18.03;;
5923;SDS011;2987;50.884;14.818;2023-01-26T03:32:09;34.77;;;19.17;;
5923;SDS011;2987;50.884;14.818;2023-01-26T03:34:37;37.70;;;19.23;;
5923;SDS011;2987;50.884;14.818;2023-01-26T03:37:03;36.10;;;20.17;;
5923;SDS011;2987;50.884;14.818;2023-01-26T03:39:41;35.53;;;19.93;;
5923;SDS011;2987;50.884;14.818;2023-01-26T03:42:28;44.03;;;21.10;;
5923;SDS011;2987;50.884;14.818;2023-01-26T03:45:16;42.37;;;19.77;;
5923;SDS011;2987;50.884;14.818;2023-01-26T03:48:03;40.13;;;18.50;;
5923;SDS011;2987;50.884;14.818;2023-01-26T03:50:49;41.93;;;19.80;;
5923;SDS011;2987;50.884;14.818;2023-01-26T03:53:33;36.43;;;19.60;;
5923;SDS011;2987;50.884;14.818;2023-01-26T03:56:17;41.47;;;20.73;;
5923;SDS011;2987;50.884;14.818;2023-01-26T03:58:49;41.10;;;19.20;;
5923;SDS011;2987;50.884;14.818;2023-01-26T04:01:19;35.80;;;19.37;;
5923;SDS011;2987;50.884;14.818;2023-01-26T04:03:49;43.40;;;21.17;;
5923;SDS011;2987;50.884;14.818;2023-01-26T04:06:38;37.27;;;19.13;;
5923;SDS011;2987;50.884;14.818;2023-01-26T04:09:23;33.50;;;18.43;;
5923;SDS011;2987;50.884;14.818;2023-01-26T04:11:49;39.90;;;19.90;;
5923;SDS011;2987;50.884;14.818;2023-01-26T04:14:16;37.70;;;20.50;;
5923;SDS011;2987;50.884;14.818;2023-01-26T04:17:01;36.63;;;19.80;;
5923;SDS011;2987;50.884;14.818;2023-01-26T04:19:46;40.67;;;21.47;;
5923;SDS011;2987;50.884;14.818;2023-01-26T04:22:35;40.13;;;20.73;;
5923;SDS011;2987;50.884;14.818;2023-01-26T04:25:02;41.43;;;20.93;;
5923;SDS011;2987;50.884;14.818;2023-01-26T04:27:29;37.80;;;20.87;;
5923;SDS011;2987;50.884;14.818;2023-01-26T04:29:55;39.57;;;21.23;;
5923;SDS011;2987;50.884;14.818;2023-01-26T04:32:21;40.47;;;21.57;;
5923;SDS011;2987;50.884;14.818;2023-01-26T04:34:47;36.77;;;19.47;;
5923;SDS011;2987;50.884;14.818;2023-01-26T04:37:19;45.27;;;22.63;;
5923;SDS011;2987;50.884;14.818;2023-01-26T04:39:46;45.73;;;22.37;;
5923;SDS011;2987;50.884;14.818;2023-01-26T04:42:13;37.87;;;20.50;;
5923;SDS011;2987;50.884;14.818;2023-01-26T04:44:39;39.30;;;20.87;;
5923;SDS011;2987;50.884;14.818;2023-01-26T04:47:05;41.20;;;20.80;;
5923;SDS011;2987;50.884;14.818;2023-01-26T04:49:32;39.27;;;20.83;;
5923;SDS011;2987;50.884;14.818;2023-01-26T04:51:58;40.93;;;20.87;;
5923;SDS011;2987;50.884;14.818;2023-01-26T04:54:25;38.63;;;21.13;;
5923;SDS011;2987;50.884;14.818;2023-01-26T04:56:51;42.20;;;21.97;;
5923;SDS011;2987;50.884;14.818;2023-01-26T04:59:17;34.37;;;20.27;;
5923;SDS011;2987;50.884;14.818;2023-01-26T05:01:43;36.70;;;20.30;;
5923;SDS011;2987;50.884;14.818;2023-01-26T05:04:10;44.13;;;21.53;;
5923;SDS011;2987;50.884;14.818;2023-01-26T05:06:39;42.63;;;22.53;;
5923;SDS011;2987;50.884;14.818;2023-01-26T05:09:07;37.77;;;20.93;;
5923;SDS011;2987;50.884;14.818;2023-01-26T05:11:35;39.57;;;21.10;;
5923;SDS011;2987;50.884;14.818;2023-01-26T05:14:13;39.73;;;22.13;;
5923;SDS011;2987;50.884;14.818;2023-01-26T05:16:57;36.40;;;20.40;;
5923;SDS011;2987;50.884;14.818;2023-01-26T05:19:43;36.70;;;21.17;;
5923;SDS011;2987;50.884;14.818;2023-01-26T05:22:12;33.37;;;18.93;;
5923;SDS011;2987;50.884;14.818;2023-01-26T05:24:38;31.10;;;17.67;;
5923;SDS011;2987;50.884;14.818;2023-01-26T05:27:04;28.33;;;16.63;;
5923;SDS011;2987;50.884;14.818;2023-01-26T05:29:55;30.33;;;16.73;;
5923;SDS011;2987;50.884;14.818;2023-01-26T05:32:28;29.53;;;16.07;;
5923;SDS011;2987;50.884;14.818;2023-01-26T05:34:55;28.13;;;15.33;;
5923;SDS011;2987;50.884;14.818;2023-01-26T05:37:23;32.73;;;16.90;;
5923;SDS011;2987;50.884;14.818;2023-01-26T05:39:50;24.87;;;15.10;;
5923;SDS011;2987;50.884;14.818;2023-01-26T05:42:18;29.90;;;15.50;;
5923;SDS011;2987;50.884;14.818;2023-01-26T05:45:04;31.33;;;16.53;;
5923;SDS011;2987;50.884;14.818;2023-01-26T05:47:31;32.70;;;16.80;;
5923;SDS011;2987;50.884;14.818;2023-01-26T05:49:57;30.43;;;16.13;;
5923;SDS011;2987;50.884;14.818;2023-01-26T05:52:23;35.53;;;16.93;;
5923;SDS011;2987;50.884;14.818;2023-01-26T05:54:50;30.83;;;17.23;;
5923;SDS011;2987;50.884;14.818;2023-01-26T05:57:16;31.23;;;16.40;;
5923;SDS011;2987;50.884;14.818;2023-01-26T05:59:48;28.83;;;15.77;;
5923;SDS011;2987;50.884;14.818;2023-01-26T06:02:16;27.67;;;15.93;;
5923;SDS011;2987;50.884;14.818;2023-01-26T06:04:44;27.43;;;15.37;;
5923;SDS011;2987;50.884;14.818;2023-01-26T06:07:10;29.83;;;15.80;;
5923;SDS011;2987;50.884;14.818;2023-01-26T06:09:53;31.93;;;16.03;;
5923;SDS011;2987;50.884;14.818;2023-01-26T06:12:23;27.37;;;14.30;;
5923;SDS011;2987;50.884;14.818;2023-01-26T06:15:01;29.43;;;14.80;;
5923;SDS011;2987;50.884;14.818;2023-01-26T06:17:47;26.57;;;13.43;;
5923;SDS011;2987;50.884;14.818;2023-01-26T06:20:14;26.67;;;12.70;;
5923;SDS011;2987;50.884;14.818;2023-01-26T06:22:47;27.73;;;13.67;;
5923;SDS011;2987;50.884;14.818;2023-01-26T06:25:14;21.20;;;11.63;;
5923;SDS011;2987;50.884;14.818;2023-01-26T06:27:40;20.53;;;11.43;;
5923;SDS011;2987;50.884;14.818;2023-01-26T06:30:12;22.57;;;12.77;;
5923;SDS011;2987;50.884;14.818;2023-01-26T06:32:40;21.83;;;11.17;;
5923;SDS011;2987;50.884;14.818;2023-01-26T06:35:07;26.20;;;13.60;;
5923;SDS011;2987;50.884;14.818;2023-01-26T06:37:33;27.50;;;14.70;;
5923;SDS011;2987;50.884;14.818;2023-01-26T06:40:01;22.63;;;12.37;;
5923;SDS011;2987;50.884;14.818;2023-01-26T06:42:27;20.60;;;11.53;;
5923;SDS011;2987;50.884;14.818;2023-01-26T06:44:53;20.63;;;11.83;;
5923;SDS011;2987;50.884;14.818;2023-01-26T06:47:22;20.07;;;10.60;;
5923;SDS011;2987;50.884;14.818;2023-01-26T06:49:48;16.50;;;10.10;;
5923;SDS011;2987;50.884;14.818;2023-01-26T06:52:24;19.57;;;9.30;;
5923;SDS011;2987;50.884;14.818;2023-01-26T06:54:59;17.67;;;9.93;;
5923;SDS011;2987;50.884;14.818;2023-01-26T06:57:47;14.97;;;9.23;;
5923;SDS011;2987;50.884;14.818;2023-01-26T07:00:19;18.03;;;9.47;;
5923;SDS011;2987;50.884;14.818;2023-01-26T07:02:55;17.43;;;10.17;;
5923;SDS011;2987;50.884;14.818;2023-01-26T07:05:21;19.60;;;10.23;;
5923;SDS011;2987;50.884;14.818;2023-01-26T07:07:47;19.03;;;10.43;;
5923;SDS011;2987;50.884;14.818;2023-01-26T07:10:13;18.90;;;11.17;;
5923;SDS011;2987;50.884;14.818;2023-01-26T07:12:40;19.40;;;11.17;;
5923;SDS011;2987;50.884;14.818;2023-01-26T07:15:10;20.13;;;11.47;;
5923;SDS011;2987;50.884;14.818;2023-01-26T07:17:37;20.27;;;11.30;;
5923;SDS011;2987;50.884;14.818;2023-01-26T07:20:04;20.97;;;11.57;;
5923;SDS011;2987;50.884;14.818;2023-01-26T07:22:32;17.57;;;11.23;;
5923;SDS011;2987;50.884;14.818;2023-01-26T07:24:58;18.47;;;11.17;;
5923;SDS011;2987;50.884;14.818;2023-01-26T07:27:24;18.70;;;10.90;;
5923;SDS011;2987;50.884;14.818;2023-01-26T07:29:50;20.17;;;10.43;;
5923;SDS011;2987;50.884;14.818;2023-01-26T07:32:16;19.93;;;11.60;;
5923;SDS011;2987;50.884;14.818;2023-01-26T07:34:42;18.83;;;10.57;;
5923;SDS011;2987;50.884;14.818;2023-01-26T07:37:09;17.70;;;10.23;;
5923;SDS011;2987;50.884;14.818;2023-01-26T07:39:35;17.57;;;10.00;;
5923;SDS011;2987;50.884;14.818;2023-01-26T07:42:01;21.63;;;10.60;;
5923;SDS011;2987;50.884;14.818;2023-01-26T07:44:43;18.50;;;11.23;;
5923;SDS011;2987;50.884;14.818;2023-01-26T07:47:10;18.87;;;10.77;;
5923;SDS011;2987;50.884;14.818;2023-01-26T07:49:36;18.23;;;10.60;;
5923;SDS011;2987;50.884;14.818;2023-01-26T07:52:03;18.07;;;10.13;;
5923;SDS011;2987;50.884;14.818;2023-01-26T07:54:30;20.90;;;10.70;;
5923;SDS011;2987;50.884;14.818;2023-01-26T07:56:56;22.17;;;11.07;;
5923;SDS011;2987;50.884;14.818;2023-01-26T07:59:23;19.43;;;11.10;;
5923;SDS011;2987;50.884;14.818;2023-01-26T08:01:49;27.20;;;12.30;;
5923;SDS011;2987;50.884;14.818;2023-01-26T08:04:16;21.87;;;12.27;;
5923;SDS011;2987;50.884;14.818;2023-01-26T08:06:43;24.90;;;12.03;;
5923;SDS011;2987;50.884;14.818;2023-01-26T08:09:09;25.77;;;13.93;;
5923;SDS011;2987;50.884;14.818;2023-01-26T08:11:36;28.77;;;14.53;;
5923;SDS011;2987;50.884;14.818;2023-01-26T08:14:02;25.70;;;14.27;;
5923;SDS011;2987;50.884;14.818;2023-01-26T08:16:28;30.27;;;15.60;;
5923;SDS011;2987;50.884;14.818;2023-01-26T08:18:54;29.67;;;15.90;;
5923;SDS011;2987;50.884;14.818;2023-01-26T08:21:20;29.10;;;16.77;;
5923;SDS011;2987;50.884;14.818;2023-01-26T08:23:47;27.73;;;15.13;;
5923;SDS011;2987;50.884;14.818;2023-01-26T08:26:14;24.80;;;14.07;;
5923;SDS011;2987;50.884;14.818;2023-01-26T08:28:43;29.67;;;15.73;;
5923;SDS011;2987;50.884;14.818;2023-01-26T08:31:10;25.77;;;15.40;;
5923;SDS011;2987;50.884;14.818;2023-01-26T08:33:40;26.23;;;14.50;;
5923;SDS011;2987;50.884;14.818;2023-01-26T08:36:09;23.90;;;13.87;;
5923;SDS011;2987;50.884;14.818;2023-01-26T08:38:36;27.10;;;14.90;;
5923;SDS011;2987;50.884;14.818;2023-01-26T08:41:02;27.53;;;14.77;;
5923;SDS011;2987;50.884;14.818;2023-01-26T08:43:29;25.20;;;15.10;;
5923;SDS011;2987;50.884;14.818;2023-01-26T08:45:56;26.97;;;15.37;;
5923;SDS011;2987;50.884;14.818;2023-01-26T08:48:22;29.03;;;16.20;;
5923;SDS011;2987;50.884;14.818;2023-01-26T08:50:53;26.27;;;14.60;;
5923;SDS011;2987;50.884;14.818;2023-01-26T08:53:21;34.33;;;18.13;;
5923;SDS011;2987;50.884;14.818;2023-01-26T08:55:47;31.63;;;16.50;;
5923;SDS011;2987;50.884;14.818;2023-01-26T08:58:14;29.93;;;17.00;;
5923;SDS011;2987;50.884;14.818;2023-01-26T09:00:40;30.63;;;16.13;;
5923;SDS011;2987;50.884;14.818;2023-01-26T09:03:06;26.93;;;15.37;;
5923;SDS011;2987;50.884;14.818;2023-01-26T09:05:34;28.83;;;15.73;;
5923;SDS011;2987;50.884;14.818;2023-01-26T09:08:02;25.93;;;14.27;;
5923;SDS011;2987;50.884;14.818;2023-01-26T09:10:29;24.40;;;13.77;;
5923;SDS011;2987;50.884;14.818;2023-01-26T09:12:56;23.30;;;12.83;;
5923;SDS011;2987;50.884;14.818;2023-01-26T09:15:23;23.73;;;14.03;;
5923;SDS011;2987;50.884;14.818;2023-01-26T09:17:50;24.70;;;14.00;;
5923;SDS011;2987;50.884;14.818;2023-01-26T09:20:18;30.70;;;15.40;;
5923;SDS011;2987;50.884;14.818;2023-01-26T09:22:45;24.33;;;14.43;;
5923;SDS011;2987;50.884;14.818;2023-01-26T09:25:12;28.03;;;15.37;;
5923;SDS011;2987;50.884;14.818;2023-01-26T09:27:39;25.50;;;15.27;;
5923;SDS011;2987;50.884;14.818;2023-01-26T09:30:06;30.03;;;15.27;;
5923;SDS011;2987;50.884;14.818;2023-01-26T09:32:33;25.00;;;15.03;;
5923;SDS011;2987;50.884;14.818;2023-01-26T09:34:59;27.47;;;15.40;;
5923;SDS011;2987;50.884;14.818;2023-01-26T09:37:25;27.20;;;15.40;;
5923;SDS011;2987;50.884;14.818;2023-01-26T09:39:51;28.03;;;15.57;;
5923;SDS011;2987;50.884;14.818;2023-01-26T09:42:23;30.97;;;17.37;;
5923;SDS011;2987;50.884;14.818;2023-01-26T09:52:57;26.13;;;15.23;;
5923;SDS011;2987;50.884;14.818;2023-01-26T09:55:27;25.20;;;13.97;;
5923;SDS011;2987;50.884;14.818;2023-01-26T09:57:56;24.67;;;14.00;;
5923;SDS011;2987;50.884;14.818;2023-01-26T10:00:38;27.37;;;14.97;;
5923;SDS011;2987;50.884;14.818;2023-01-26T10:03:28;27.30;;;14.80;;
5923;SDS011;2987;50.884;14.818;2023-01-26T10:06:09;28.07;;;14.37;;
5923;SDS011;2987;50.884;14.818;2023-01-26T10:08:59;24.97;;;14.47;;
5923;SDS011;2987;50.884;14.818;2023-01-26T10:11:31;24.90;;;14.67;;
5923;SDS011;2987;50.884;14.818;2023-01-26T10:14:11;25.23;;;14.87;;
5923;SDS011;2987;50.884;14.818;2023-01-26T10:16:43;29.20;;;16.37;;
5923;SDS011;2987;50.884;14.818;2023-01-26T10:19:18;32.00;;;16.97;;
5923;SDS011;2987;50.884;14.818;2023-01-26T10:22:02;28.07;;;15.87;;
5923;SDS011;2987;50.884;14.818;2023-01-26T10:24:34;30.50;;;15.67;;
5923;SDS011;2987;50.884;14.818;2023-01-26T10:27:00;31.97;;;15.83;;
5923;SDS011;2987;50.884;14.818;2023-01-26T10:29:26;27.83;;;15.70;;
5923;SDS011;2987;50.884;14.818;2023-01-26T10:31:55;37.07;;;19.93;;
5923;SDS011;2987;50.884;14.818;2023-01-26T10:34:22;67.07;;;33.30;;
5923;SDS011;2987;50.884;14.818;2023-01-26T10:36:50;58.20;;;31.47;;
5923;SDS011;2987;50.884;14.818;2023-01-26T10:39:26;58.53;;;29.70;;
5923;SDS011;2987;50.884;14.818;2023-01-26T10:41:56;61.63;;;30.40;;
5923;SDS011;2987;50.884;14.818;2023-01-26T10:44:28;49.00;;;24.37;;
5923;SDS011;2987;50.884;14.818;2023-01-26T10:47:01;42.27;;;23.47;;
5923;SDS011;2987;50.884;14.818;2023-01-26T10:49:30;43.83;;;22.77;;
5923;SDS011;2987;50.884;14.818;2023-01-26T10:54:48;44.00;;;21.90;;
5923;SDS011;2987;50.884;14.818;2023-01-26T10:57:38;38.80;;;20.83;;
5923;SDS011;2987;50.884;14.818;2023-01-26T11:05:20;47.20;;;23.67;;
5923;SDS011;2987;50.884;14.818;2023-01-26T11:07:48;38.30;;;22.33;;
5923;SDS011;2987;50.884;14.818;2023-01-26T11:10:21;35.57;;;19.50;;
5923;SDS011;2987;50.884;14.818;2023-01-26T11:12:50;36.73;;;19.50;;
5923;SDS011;2987;50.884;14.818;2023-01-26T11:15:32;37.37;;;18.77;;
5923;SDS011;2987;50.884;14.818;2023-01-26T11:18:06;35.83;;;19.07;;
5923;SDS011;2987;50.884;14.818;2023-01-26T11:26:12;46.07;;;24.03;;
5923;SDS011;2987;50.884;14.818;2023-01-26T11:54:54;28.50;;;13.33;;
5923;SDS011;2987;50.884;14.818;2023-01-26T11:57:38;24.37;;;12.80;;
5923;SDS011;2987;50.884;14.818;2023-01-26T12:00:18;26.83;;;13.20;;
5923;SDS011;2987;50.884;14.818;2023-01-26T12:02:52;28.20;;;13.63;;
5923;SDS011;2987;50.884;14.818;2023-01-26T12:05:25;23.43;;;12.50;;
5923;SDS011;2987;50.884;14.818;2023-01-26T12:07:58;23.07;;;13.67;;
5923;SDS011;2987;50.884;14.818;2023-01-26T12:10:34;24.93;;;13.77;;
5923;SDS011;2987;50.884;14.818;2023-01-26T12:13:10;23.03;;;12.23;;
5923;SDS011;2987;50.884;14.818;2023-01-26T12:16:06;24.20;;;12.73;;
5923;SDS011;2987;50.884;14.818;2023-01-26T12:18:50;21.57;;;12.77;;
5923;SDS011;2987;50.884;14.818;2023-01-26T12:21:24;22.83;;;13.00;;
5923;SDS011;2987;50.884;14.818;2023-01-26T12:24:00;26.53;;;14.03;;
5923;SDS011;2987;50.884;14.818;2023-01-26T12:26:31;28.07;;;14.70;;
5923;SDS011;2987;50.884;14.818;2023-01-26T12:29:12;26.07;;;14.90;;
5923;SDS011;2987;50.884;14.818;2023-01-26T12:31:53;31.37;;;14.30;;
5923;SDS011;2987;50.884;14.818;2023-01-26T12:34:26;25.73;;;13.50;;
5923;SDS011;2987;50.884;14.818;2023-01-26T12:50:23;23.70;;;12.83;;
5923;SDS011;2987;50.884;14.818;2023-01-26T12:55:39;26.83;;;14.00;;
5923;SDS011;2987;50.884;14.818;2023-01-26T12:58:11;28.83;;;13.77;;
5923;SDS011;2987;50.884;14.818;2023-01-26T13:00:47;27.93;;;15.33;;
5923;SDS011;2987;50.884;14.818;2023-01-26T13:03:23;30.00;;;14.50;;
5923;SDS011;2987;50.884;14.818;2023-01-26T13:05:56;28.57;;;15.67;;
5923;SDS011;2987;50.884;14.818;2023-01-26T13:27:56;31.40;;;17.97;;
5923;SDS011;2987;50.884;14.818;2023-01-26T13:35:55;32.43;;;17.87;;
5923;SDS011;2987;50.884;14.818;2023-01-26T13:38:40;35.10;;;18.40;;
5923;SDS011;2987;50.884;14.818;2023-01-26T13:43:43;39.03;;;19.30;;
5923;SDS011;2987;50.884;14.818;2023-01-26T13:51:32;40.77;;;20.30;;
5923;SDS011;2987;50.884;14.818;2023-01-26T13:54:02;35.63;;;18.40;;
5923;SDS011;2987;50.884;14.818;2023-01-26T13:59:13;32.07;;;17.03;;
5923;SDS011;2987;50.884;14.818;2023-01-26T14:01:44;31.13;;;16.90;;
5923;SDS011;2987;50.884;14.818;2023-01-26T14:04:14;33.70;;;18.27;;
5923;SDS011;2987;50.884;14.818;2023-01-26T14:11:58;34.13;;;17.67;;
5923;SDS011;2987;50.884;14.818;2023-01-26T14:14:27;35.37;;;17.87;;
5923;SDS011;2987;50.884;14.818;2023-01-26T14:19:23;42.43;;;22.07;;
5923;SDS011;2987;50.884;14.818;2023-01-26T14:21:52;41.00;;;21.53;;
5923;SDS011;2987;50.884;14.818;2023-01-26T14:24:29;50.70;;;23.07;;
5923;SDS011;2987;50.884;14.818;2023-01-26T14:26:59;50.83;;;23.27;;
5923;SDS011;2987;50.884;14.818;2023-01-26T14:29:27;47.23;;;22.43;;
5923;SDS011;2987;50.884;14.818;2023-01-26T14:31:56;46.60;;;22.63;;
5923;SDS011;2987;50.884;14.818;2023-01-26T14:34:25;51.07;;;23.87;;
5923;SDS011;2987;50.884;14.818;2023-01-26T14:39:40;50.93;;;23.97;;
5923;SDS011;2987;50.884;14.818;2023-01-26T14:42:12;47.50;;;22.67;;
5923;SDS011;2987;50.884;14.818;2023-01-26T14:49:57;57.03;;;25.47;;
5923;SDS011;2987;50.884;14.818;2023-01-26T14:52:32;51.43;;;24.20;;
5923;SDS011;2987;50.884;14.818;2023-01-26T14:59:57;57.37;;;25.47;;
5923;SDS011;2987;50.884;14.818;2023-01-26T15:02:26;53.87;;;23.47;;
5923;SDS011;2987;50.884;14.818;2023-01-26T15:05:02;57.73;;;25.80;;
5923;SDS011;2987;50.884;14.818;2023-01-26T15:07:40;59.63;;;26.13;;
5923;SDS011;2987;50.884;14.818;2023-01-26T15:15:29;55.40;;;24.77;;
5923;SDS011;2987;50.884;14.818;2023-01-26T15:18:18;58.07;;;24.33;;
5923;SDS011;2987;50.884;14.818;2023-01-26T15:23:39;50.63;;;22.87;;
5923;SDS011;2987;50.884;14.818;2023-01-26T15:26:08;45.70;;;21.80;;
5923;SDS011;2987;50.884;14.818;2023-01-26T15:28:38;48.90;;;22.30;;
5923;SDS011;2987;50.884;14.818;2023-01-26T15:31:05;47.83;;;22.87;;
5923;SDS011;2987;50.884;14.818;2023-01-26T15:33:43;44.90;;;21.93;;
5923;SDS011;2987;50.884;14.818;2023-01-26T15:36:20;42.83;;;20.90;;
5923;SDS011;2987;50.884;14.818;2023-01-26T15:38:53;60.00;;;25.50;;
5923;SDS011;2987;50.884;14.818;2023-01-26T15:41:24;53.87;;;23.90;;
5923;SDS011;2987;50.884;14.818;2023-01-26T15:43:50;49.50;;;23.17;;
5923;SDS011;2987;50.884;14.818;2023-01-26T15:46:20;52.63;;;25.40;;
5923;SDS011;2987;50.884;14.818;2023-01-26T15:48:46;54.60;;;25.50;;
5923;SDS011;2987;50.884;14.818;2023-01-26T15:51:13;57.80;;;23.90;;
5923;SDS011;2987;50.884;14.818;2023-01-26T15:53:40;59.80;;;24.93;;
5923;SDS011;2987;50.884;14.818;2023-01-26T15:56:10;62.03;;;25.23;;
5923;SDS011;2987;50.884;14.818;2023-01-26T15:58:38;55.50;;;25.03;;
5923;SDS011;2987;50.884;14.818;2023-01-26T16:01:05;51.40;;;24.10;;
5923;SDS011;2987;50.884;14.818;2023-01-26T16:03:32;48.83;;;23.90;;
5923;SDS011;2987;50.884;14.818;2023-01-26T16:06:01;47.00;;;22.73;;
5923;SDS011;2987;50.884;14.818;2023-01-26T16:08:27;44.33;;;21.47;;
5923;SDS011;2987;50.884;14.818;2023-01-26T16:10:53;48.10;;;23.17;;
5923;SDS011;2987;50.884;14.818;2023-01-26T16:13:24;41.07;;;21.43;;
5923;SDS011;2987;50.884;14.818;2023-01-26T16:15:51;42.90;;;21.90;;
5923;SDS011;2987;50.884;14.818;2023-01-26T16:18:18;43.87;;;21.60;;
5923;SDS011;2987;50.884;14.818;2023-01-26T16:20:45;45.80;;;22.20;;
5923;SDS011;2987;50.884;14.818;2023-01-26T16:23:22;46.40;;;22.07;;
5923;SDS011;2987;50.884;14.818;2023-01-26T16:25:50;41.53;;;21.07;;
5923;SDS011;2987;50.884;14.818;2023-01-26T16:28:17;44.27;;;22.30;;
5923;SDS011;2987;50.884;14.818;2023-01-26T16:30:44;41.03;;;20.30;;
5923;SDS011;2987;50.884;14.818;2023-01-26T16:33:14;38.43;;;20.23;;
5923;SDS011;2987;50.884;14.818;2023-01-26T16:35:45;36.83;;;19.43;;
5923;SDS011;2987;50.884;14.818;2023-01-26T16:38:12;39.10;;;19.17;;
5923;SDS011;2987;50.884;14.818;2023-01-26T16:40:39;39.73;;;19.57;;
5923;SDS011;2987;50.884;14.818;2023-01-26T16:43:21;35.67;;;18.97;;
5923;SDS011;2987;50.884;14.818;2023-01-26T16:45:51;37.47;;;19.27;;
5923;SDS011;2987;50.884;14.818;2023-01-26T16:48:17;42.83;;;19.97;;
5923;SDS011;2987;50.884;14.818;2023-01-26T16:50:44;36.50;;;18.10;;
5923;SDS011;2987;50.884;14.818;2023-01-26T16:53:26;39.67;;;19.37;;
5923;SDS011;2987;50.884;14.818;2023-01-26T16:55:55;42.67;;;19.47;;
5923;SDS011;2987;50.884;14.818;2023-01-26T16:58:21;38.17;;;19.03;;
5923;SDS011;2987;50.884;14.818;2023-01-26T17:00:51;38.57;;;19.37;;
5923;SDS011;2987;50.884;14.818;2023-01-26T17:03:18;38.87;;;18.50;;
5923;SDS011;2987;50.884;14.818;2023-01-26T17:05:45;42.00;;;20.07;;
5923;SDS011;2987;50.884;14.818;2023-01-26T17:08:11;40.67;;;21.20;;
5923;SDS011;2987;50.884;14.818;2023-01-26T17:10:37;38.67;;;18.97;;
5923;SDS011;2987;50.884;14.818;2023-01-26T17:13:04;41.03;;;19.13;;
5923;SDS011;2987;50.884;14.818;2023-01-26T17:15:30;36.63;;;18.57;;